Terminal Aerodrome Forecast
Issued by NWS

Home | Current Version | Previous Version | Graphics & Text | Print | Product List | Glossary On
Versions: 1 2 3 4 5 6 7 8 9 10 11 12 13 14 15 16 17 18 19 20 21
000
FTUS43 KMPX 311131
TAFRWF
TAF
KRWF 311131Z 3112/0112 32007KT P6SM OVC008
     FM311800 04010KT P6SM BKN015 OVC025
     FM010000 04014G22KT 6SM -SN BR BKN015 BKN050
     FM010600 03014G22KT 2SM -SN BR OVC012=

USA.gov is the U.S. government's official web portal to all federal, state and local government web resources and services.